createdAt,value
2024-02-29T00:00:07.474Z,96489.63
2024-02-29T00:02:35.412Z,96485.56
2024-02-29T00:05:02.535Z,96496.38
2024-02-29T00:07:29.618Z,96499.88
2024-02-29T00:09:56.689Z,96505.19
2024-02-29T00:12:23.795Z,96507.22
2024-02-29T00:14:51.794Z,96511.34
2024-02-29T00:17:19.015Z,96522.81
2024-02-29T00:19:46.057Z,96528.94
2024-02-29T00:22:13.159Z,96534.84
2024-02-29T00:24:40.310Z,96541.19
2024-02-29T00:27:08.526Z,96548.97
2024-02-29T00:29:35.706Z,96549.19
2024-02-29T00:32:02.965Z,96550.59
2024-02-29T00:34:30.077Z,96561.66
2024-02-29T00:36:57.562Z,96565.75
2024-02-29T00:39:24.750Z,96577.19
2024-02-29T00:41:51.836Z,96569.84
2024-02-29T00:44:18.927Z,96571.06
2024-02-29T00:46:46.013Z,96578.00
2024-02-29T00:49:14.971Z,96578.63
2024-02-29T00:51:43.010Z,96577.38
2024-02-29T00:54:10.184Z,96575.75
2024-02-29T00:56:37.312Z,96573.09
2024-02-29T00:59:04.437Z,96573.91
2024-02-29T01:01:31.799Z,96569.00
2024-02-29T01:03:59.246Z,96573.09
2024-02-29T01:06:26.475Z,96572.06
2024-02-29T01:08:53.589Z,96581.69
2024-02-29T01:11:20.776Z,96574.72
2024-02-29T01:13:47.880Z,96566.59
2024-02-29T01:16:14.988Z,96561.66
2024-02-29T01:18:42.160Z,96564.94
2024-02-29T01:21:09.427Z,96559.44
2024-02-29T01:23:36.567Z,96561.66
2024-02-29T01:26:05.247Z,96554.31
2024-02-29T01:28:32.463Z,96558.44
2024-02-29T01:31:01.430Z,96556.19
2024-02-29T01:33:28.867Z,96550.88
2024-02-29T01:35:56.087Z,96553.94
2024-02-29T01:38:23.185Z,96553.13
2024-02-29T01:40:50.318Z,96560.06
2024-02-29T01:43:17.646Z,96556.59
2024-02-29T01:45:45.153Z,96555.56
2024-02-29T01:48:13.209Z,96543.28
2024-02-29T01:50:40.659Z,96544.34
2024-02-29T01:53:07.867Z,96542.91
2024-02-29T01:55:35.327Z,96540.44
2024-02-29T01:58:05.853Z,96540.84
2024-02-29T02:00:34.325Z,96538.59
2024-02-29T02:03:01.485Z,96536.38
2024-02-29T02:05:28.631Z,96539.63
2024-02-29T02:07:56.344Z,96532.28
2024-02-29T02:10:23.548Z,96524.53
2024-02-29T02:12:50.661Z,96519.22
2024-02-29T02:15:17.894Z,96518.00
2024-02-29T02:17:45.084Z,96516.38
2024-02-29T02:20:16.784Z,96512.47
2024-02-29T02:22:43.873Z,96511.06
2024-02-29T02:25:11.119Z,96506.16
2024-02-29T02:27:38.809Z,96508.22
2024-02-29T02:30:08.203Z,96502.47
2024-02-29T02:32:36.482Z,96491.03
2024-02-29T02:35:05.333Z,96488.59
2024-02-29T02:37:32.620Z,96488.59
2024-02-29T02:39:59.976Z,96491.84
2024-02-29T02:42:27.179Z,96486.97
2024-02-29T02:44:54.245Z,96478.41
2024-02-29T02:47:21.304Z,96465.72
2024-02-29T02:49:48.392Z,96464.09
2024-02-29T02:52:15.545Z,96454.50
2024-02-29T02:57:38.980Z,96466.13
2024-02-29T03:00:11.338Z,96468.97
2024-02-29T03:02:41.566Z,96457.97
2024-02-29T03:05:10.272Z,96449.38
2024-02-29T03:07:39.531Z,96434.91
2024-02-29T03:10:07.861Z,96440.59
2024-02-29T03:12:35.624Z,96438.75
2024-02-29T03:15:02.797Z,96437.78
2024-02-29T03:17:30.291Z,96434.31
2024-02-29T03:19:57.360Z,96434.72
2024-02-29T03:22:24.468Z,96426.34
2024-02-29T03:24:53.240Z,96416.31
2024-02-29T03:27:20.350Z,96427.72
2024-02-29T03:29:47.425Z,96420.38
2024-02-29T03:32:14.503Z,96412.84
2024-02-29T03:34:41.631Z,96413.88
2024-02-29T03:37:09.208Z,96406.94
2024-02-29T03:39:36.497Z,96413.47
2024-02-29T03:42:03.639Z,96406.75
2024-02-29T03:44:30.728Z,96405.69
2024-02-29T03:46:57.796Z,96398.78
2024-02-29T03:49:24.899Z,96397.53
2024-02-29T03:51:52.091Z,96396.72
2024-02-29T03:54:19.220Z,96387.72
2024-02-29T03:56:46.268Z,96392.63
2024-02-29T03:59:14.172Z,96388.53
2024-02-29T04:01:46.922Z,96392.22
2024-02-29T04:04:14.168Z,96390.81
2024-02-29T04:06:41.313Z,96383.69
2024-02-29T04:09:08.381Z,96381.25
2024-02-29T04:11:35.470Z,96379.22
2024-02-29T04:14:02.513Z,96375.53
2024-02-29T04:16:29.575Z,96372.69
2024-02-29T04:18:56.849Z,96372.69
2024-02-29T04:21:23.994Z,96380.41
2024-02-29T04:23:51.035Z,96377.56
2024-02-29T04:26:18.537Z,96373.25
2024-02-29T04:28:45.603Z,96366.97
2024-02-29T04:31:12.803Z,96361.22
2024-02-29T04:33:40.182Z,96354.91
2024-02-29T04:36:08.276Z,96349.00
2024-02-29T04:38:35.345Z,96356.13
2024-02-29T04:41:02.452Z,96353.69
2024-02-29T04:43:29.751Z,96353.28
2024-02-29T04:45:56.962Z,96353.44
2024-02-29T04:48:24.071Z,96353.03
2024-02-29T04:50:51.202Z,96350.22
2024-02-29T04:53:18.810Z,96344.50
2024-02-29T04:55:45.914Z,96338.38
2024-02-29T04:58:13.106Z,96325.72
2024-02-29T05:00:40.349Z,96328.16
2024-02-29T05:03:07.424Z,96321.44
2024-02-29T05:05:34.508Z,96320.81
2024-02-29T05:08:01.841Z,96326.56
2024-02-29T05:10:29.559Z,96317.56
2024-02-29T05:12:57.041Z,96313.09
2024-02-29T05:15:24.530Z,96307.78
2024-02-29T05:17:51.641Z,96319.19
2024-02-29T05:20:18.800Z,96320.03
2024-02-29T05:22:45.918Z,96307.78
2024-02-29T05:25:13.275Z,96297.16
2024-02-29T05:27:40.586Z,96297.78
2024-02-29T05:30:07.986Z,96287.00
2024-02-29T05:32:35.205Z,96279.63
2024-02-29T05:35:02.423Z,96274.31
2024-02-29T05:37:31.016Z,96276.94
2024-02-29T05:39:59.873Z,96283.03
2024-02-29T05:42:29.765Z,96276.91
2024-02-29T05:44:56.930Z,96276.91
2024-02-29T05:47:24.130Z,96276.69
2024-02-29T05:49:51.276Z,96275.88
2024-02-29T05:52:18.454Z,96279.13
2024-02-29T05:54:45.771Z,96280.13
2024-02-29T05:57:12.982Z,96284.19
2024-02-29T05:59:40.172Z,96283.56
2024-02-29T06:02:07.365Z,96294.59
2024-02-29T06:04:34.515Z,96286.03
2024-02-29T06:07:01.617Z,96274.41
2024-02-29T06:09:28.762Z,96272.16
2024-02-29T06:11:55.861Z,96274.00
2024-02-29T06:14:25.492Z,96275.41
2024-02-29T06:16:52.630Z,96272.75
2024-02-29T06:19:19.806Z,96276.22
2024-02-29T06:21:47.077Z,96278.25
2024-02-29T06:24:19.580Z,96270.50
2024-02-29T06:26:47.456Z,96267.22
2024-02-29T06:29:14.724Z,96266.03
2024-02-29T06:31:43.598Z,96271.34
2024-02-29T06:34:10.856Z,96263.16
2024-02-29T06:36:38.062Z,96268.25
2024-02-29T06:39:09.369Z,96260.50
2024-02-29T06:41:37.612Z,96259.69
2024-02-29T06:44:07.251Z,96257.84
2024-02-29T06:46:34.377Z,96257.47
2024-02-29T06:49:02.057Z,96260.34
2024-02-29T06:51:29.525Z,96259.50
2024-02-29T06:53:57.157Z,96262.16
2024-02-29T06:56:24.345Z,96260.94
2024-02-29T06:58:51.428Z,96266.41
2024-02-29T07:01:22.454Z,96260.28
2024-02-29T07:03:49.652Z,96260.13
2024-02-29T07:06:17.103Z,96258.91
2024-02-29T07:08:44.226Z,96259.69
2024-02-29T07:11:13.091Z,96256.81
2024-02-29T07:13:40.484Z,96254.78
2024-02-29T07:16:07.574Z,96257.22
2024-02-29T07:18:34.908Z,96258.25
2024-02-29T07:21:02.004Z,96257.59
2024-02-29T07:23:29.385Z,96246.75
2024-02-29T07:25:56.431Z,96247.16
2024-02-29T07:28:23.600Z,96251.22
2024-02-29T07:30:50.811Z,96248.75
2024-02-29T07:33:18.380Z,96252.75
2024-02-29T07:35:45.507Z,96249.06
2024-02-29T07:38:12.589Z,96250.44
2024-02-29T07:40:40.006Z,96247.09
2024-02-29T07:43:07.448Z,96253.41
2024-02-29T07:45:34.586Z,96244.84
2024-02-29T07:48:03.758Z,96240.28
2024-02-29T07:50:32.348Z,96243.84
2024-02-29T07:52:59.428Z,96245.91
2024-02-29T07:55:27.749Z,96238.13
2024-02-29T07:57:54.837Z,96240.50
2024-02-29T08:00:21.918Z,96242.75
2024-02-29T08:02:49.018Z,96236.22
2024-02-29T08:05:16.301Z,96230.59
2024-02-29T08:07:47.658Z,96221.59
2024-02-29T08:10:17.110Z,96221.47
2024-02-29T08:12:45.130Z,96222.41
2024-02-29T08:15:12.492Z,96213.84
2024-02-29T08:17:39.666Z,96207.56
2024-02-29T08:20:09.132Z,96200.31
2024-02-29T08:22:36.612Z,96185.88
2024-02-29T08:25:04.022Z,96178.19
2024-02-29T08:27:31.197Z,96190.28
2024-02-29T08:29:59.534Z,96187.34
2024-02-29T08:32:26.695Z,96172.63
2024-02-29T08:34:55.099Z,96173.88
2024-02-29T08:37:22.233Z,96172.53
2024-02-29T08:39:49.778Z,96171.22
2024-02-29T08:42:16.874Z,96163.81
2024-02-29T08:44:44.248Z,96165.38
2024-02-29T08:47:11.478Z,96149.31
2024-02-29T08:49:39.316Z,96143.19
2024-02-29T08:52:08.977Z,96138.91
2024-02-29T08:54:37.442Z,96127.34
2024-02-29T08:57:05.790Z,96127.13
2024-02-29T08:59:33.976Z,96120.97
2024-02-29T09:02:04.105Z,96118.44
2024-02-29T09:04:31.735Z,96107.06
2024-02-29T09:06:58.997Z,96107.69
2024-02-29T09:09:26.155Z,96106.94
2024-02-29T09:11:53.252Z,96108.78
2024-02-29T09:14:20.737Z,96095.34
2024-02-29T09:16:47.969Z,96089.00
2024-02-29T09:19:15.145Z,96087.16
2024-02-29T09:21:43.441Z,96080.56
2024-02-29T09:24:12.607Z,96075.34
2024-02-29T09:26:41.067Z,96065.16
2024-02-29T09:29:08.163Z,96064.00
2024-02-29T09:31:35.291Z,96054.75
2024-02-29T09:34:02.467Z,96042.13
2024-02-29T09:36:32.367Z,96043.28
2024-02-29T09:38:59.558Z,96026.16
2024-02-29T09:41:41.364Z,96029.50
2024-02-29T09:44:14.366Z,96012.69
2024-02-29T09:46:42.887Z,96019.28
2024-02-29T09:49:10.186Z,96007.00
2024-02-29T09:51:38.287Z,95996.22
2024-02-29T09:54:07.761Z,95988.66
2024-02-29T09:56:34.858Z,95981.72
2024-02-29T09:59:02.943Z,95973.34
2024-02-29T10:01:31.168Z,95977.75
2024-02-29T10:03:59.738Z,95974.16
2024-02-29T10:06:26.787Z,95966.03
2024-02-29T10:08:53.880Z,95967.69
2024-02-29T10:11:21.959Z,95949.59
2024-02-29T10:13:49.065Z,95940.78
2024-02-29T10:16:16.186Z,95929.56
2024-02-29T10:18:43.438Z,95925.22
2024-02-29T10:21:15.403Z,95922.00
2024-02-29T10:23:43.412Z,95908.25
2024-02-29T10:26:10.492Z,95896.53
2024-02-29T10:28:37.627Z,95892.41
2024-02-29T10:31:05.559Z,95883.19
2024-02-29T10:33:38.848Z,95885.97
2024-02-29T10:36:10.529Z,95879.03
2024-02-29T10:38:38.500Z,95856.06
2024-02-29T10:41:08.099Z,95849.03
2024-02-29T10:43:35.511Z,95841.09
2024-02-29T10:46:05.190Z,95829.53
2024-02-29T10:48:32.313Z,95826.22
2024-02-29T10:51:07.482Z,95816.16
2024-02-29T10:53:43.468Z,95813.44
2024-02-29T10:56:21.829Z,95805.50
2024-02-29T10:58:52.071Z,95797.19
2024-02-29T11:01:19.320Z,95800.03
2024-02-29T11:03:46.998Z,95793.81
2024-02-29T11:06:14.380Z,95783.72
2024-02-29T11:08:41.861Z,95779.03
2024-02-29T11:11:16.430Z,95775.31
2024-02-29T11:13:43.565Z,95763.34
2024-02-29T11:16:12.276Z,95757.88
2024-02-29T11:18:39.631Z,95754.56
2024-02-29T11:21:06.984Z,95762.72
2024-02-29T11:23:35.222Z,95749.94
2024-02-29T11:26:03.005Z,95747.38
2024-02-29T11:28:34.416Z,95742.81
2024-02-29T11:31:17.138Z,95735.63
2024-02-29T11:33:45.391Z,95732.16
2024-02-29T11:36:13.036Z,95721.09
2024-02-29T11:38:41.026Z,95720.94
2024-02-29T11:41:17.985Z,95720.03
2024-02-29T11:43:45.586Z,95716.97
2024-02-29T11:46:13.073Z,95714.31
2024-02-29T11:48:40.681Z,95701.78
2024-02-29T11:51:11.187Z,95710.34
2024-02-29T11:53:39.743Z,95691.94
2024-02-29T11:56:14.776Z,95695.81
2024-02-29T11:58:43.462Z,95698.34
2024-02-29T12:01:13.768Z,95683.94
2024-02-29T12:03:41.353Z,95687.47
2024-02-29T12:06:08.637Z,95679.69
2024-02-29T12:08:35.902Z,95677.81
2024-02-29T12:11:03.637Z,95672.91
2024-02-29T12:13:31.056Z,95675.16
2024-02-29T12:15:58.996Z,95670.81
2024-02-29T12:18:26.554Z,95669.19
2024-02-29T12:20:53.746Z,95658.28
2024-02-29T12:23:21.010Z,95652.94
2024-02-29T12:25:48.091Z,95652.66
2024-02-29T12:28:15.562Z,95656.66
2024-02-29T12:30:43.117Z,95651.84
2024-02-29T12:33:14.252Z,95651.03
2024-02-29T12:35:43.696Z,95650.03
2024-02-29T12:38:18.566Z,95640.66
2024-02-29T12:40:46.004Z,95633.72
2024-02-29T12:43:16.694Z,95638.19
2024-02-29T12:45:44.326Z,95626.28
2024-02-29T12:48:12.481Z,95633.38
2024-02-29T12:50:41.613Z,95631.44
2024-02-29T12:53:08.798Z,95633.81
2024-02-29T12:55:36.819Z,95626.66
2024-02-29T12:58:04.739Z,95633.22
2024-02-29T13:00:31.958Z,95626.84
2024-02-29T13:02:59.168Z,95613.00
2024-02-29T13:05:26.245Z,95611.97
2024-02-29T13:07:53.351Z,95611.41
2024-02-29T13:10:21.834Z,95604.38
2024-02-29T13:12:52.008Z,95610.75
2024-02-29T13:15:24.178Z,95602.28
2024-02-29T13:17:51.375Z,95601.28
2024-02-29T13:20:18.776Z,95586.97
2024-02-29T13:22:45.907Z,95584.22
2024-02-29T13:25:13.591Z,95585.22
2024-02-29T13:27:40.780Z,95583.13
2024-02-29T13:30:08.130Z,95574.56
2024-02-29T13:32:35.216Z,95564.81
2024-02-29T13:35:02.545Z,95562.84
2024-02-29T13:37:29.969Z,95551.22
2024-02-29T13:39:57.155Z,95549.56
2024-02-29T13:42:24.268Z,95535.81
2024-02-29T13:44:51.367Z,95540.09
2024-02-29T13:47:18.434Z,95541.72
2024-02-29T13:49:45.583Z,95539.84
2024-02-29T13:52:17.991Z,95539.06
2024-02-29T13:54:46.331Z,95529.34
2024-02-29T13:57:15.304Z,95516.34
2024-02-29T13:59:43.389Z,95509.31
2024-02-29T14:02:11.792Z,95511.75
2024-02-29T14:04:38.985Z,95504.84
2024-02-29T14:07:06.263Z,95502.25
2024-02-29T14:09:35.459Z,95491.50
2024-02-29T14:12:02.697Z,95498.22
2024-02-29T14:14:29.797Z,95489.78
2024-02-29T14:16:56.935Z,95481.00
2024-02-29T14:19:24.197Z,95474.59
2024-02-29T14:21:51.398Z,95475.47
2024-02-29T14:24:18.498Z,95472.00
2024-02-29T14:26:45.836Z,95467.22
2024-02-29T14:29:13.011Z,95454.53
2024-02-29T14:31:40.379Z,95453.25
2024-02-29T14:34:07.705Z,95448.50
2024-02-29T14:36:36.279Z,95448.22
2024-02-29T14:39:12.530Z,95434.63
2024-02-29T14:41:39.777Z,95434.94
2024-02-29T14:44:07.234Z,95425.00
2024-02-29T14:46:34.439Z,95426.78
2024-02-29T14:49:01.805Z,95415.00
2024-02-29T14:51:28.872Z,95411.25
2024-02-29T14:53:56.209Z,95411.00
2024-02-29T14:56:24.455Z,95412.63
2024-02-29T14:58:51.857Z,95414.53
2024-02-29T15:01:19.918Z,95417.69
2024-02-29T15:03:47.100Z,95422.31
2024-02-29T15:06:14.300Z,95421.16
2024-02-29T15:08:41.429Z,95420.34
2024-02-29T15:11:09.023Z,95416.97
2024-02-29T15:13:36.175Z,95421.81
2024-02-29T15:16:03.378Z,95421.81
2024-02-29T15:18:30.685Z,95420.44
2024-02-29T15:20:57.740Z,95412.69
2024-02-29T15:23:24.794Z,95418.00
2024-02-29T15:25:51.905Z,95414.56
2024-02-29T15:28:19.157Z,95418.00
2024-02-29T15:30:47.368Z,95421.13
2024-02-29T15:33:14.624Z,95421.56
2024-02-29T15:35:41.823Z,95418.88
2024-02-29T15:38:09.009Z,95420.50
2024-02-29T15:40:36.154Z,95425.25
2024-02-29T15:43:03.411Z,95416.63
2024-02-29T15:45:30.473Z,95430.50
2024-02-29T15:47:57.559Z,95432.66
2024-02-29T15:50:24.731Z,95438.06
2024-02-29T15:52:52.156Z,95436.94
2024-02-29T15:55:19.292Z,95434.00
2024-02-29T15:57:46.473Z,95444.09
2024-02-29T16:00:13.894Z,95439.81
2024-02-29T16:02:41.255Z,95452.38
2024-02-29T16:05:08.559Z,95449.47
2024-02-29T16:07:35.772Z,95451.84
2024-02-29T16:10:03.230Z,95452.97
2024-02-29T16:12:30.438Z,95455.59
2024-02-29T16:14:57.573Z,95462.31
2024-02-29T16:17:25.538Z,95454.00
2024-02-29T16:19:52.659Z,95456.88
2024-02-29T16:22:19.779Z,95453.38
2024-02-29T16:24:47.098Z,95462.50
2024-02-29T16:27:14.468Z,95462.75
2024-02-29T16:29:41.586Z,95464.63
2024-02-29T16:32:08.735Z,95467.47
2024-02-29T16:34:36.410Z,95468.28
2024-02-29T16:37:04.320Z,95468.78
2024-02-29T16:39:31.580Z,95451.44
2024-02-29T16:41:58.711Z,95466.06
2024-02-29T16:44:27.619Z,95467.34
2024-02-29T16:46:54.926Z,95477.72
2024-02-29T16:49:22.217Z,95471.88
2024-02-29T16:51:49.461Z,95474.31
2024-02-29T16:54:16.584Z,95473.19
2024-02-29T16:56:46.062Z,95479.63
2024-02-29T16:59:13.800Z,95479.34
2024-02-29T17:01:41.778Z,95471.84
2024-02-29T17:04:09.023Z,95474.16
2024-02-29T17:06:36.766Z,95475.16
2024-02-29T17:09:04.751Z,95473.88
2024-02-29T17:11:32.006Z,95472.44
2024-02-29T17:13:59.290Z,95474.78
2024-02-29T17:16:26.601Z,95484.09
2024-02-29T17:18:53.813Z,95475.78
2024-02-29T17:21:25.971Z,95475.72
2024-02-29T17:23:53.847Z,95473.00
2024-02-29T17:26:21.413Z,95479.16
2024-02-29T17:28:52.110Z,95472.75
2024-02-29T17:31:20.547Z,95473.25
2024-02-29T17:33:48.142Z,95475.41
2024-02-29T17:36:15.649Z,95472.13
2024-02-29T17:38:42.696Z,95466.16
2024-02-29T17:41:12.649Z,95459.50
2024-02-29T17:43:40.458Z,95456.06
2024-02-29T17:46:07.714Z,95450.94
2024-02-29T17:48:35.991Z,95451.75
2024-02-29T17:51:04.344Z,95443.41
2024-02-29T17:53:31.427Z,95443.38
2024-02-29T17:55:58.477Z,95439.97
2024-02-29T17:58:25.937Z,95437.56
2024-02-29T18:00:53.301Z,95437.78
2024-02-29T18:03:20.475Z,95439.66
2024-02-29T18:05:47.604Z,95439.31
2024-02-29T18:08:14.766Z,95427.91
2024-02-29T18:10:41.892Z,95415.06
2024-02-29T18:13:09.138Z,95414.25
2024-02-29T18:15:36.334Z,95418.19
2024-02-29T18:18:03.527Z,95418.19
2024-02-29T18:20:30.639Z,95419.28
2024-02-29T18:22:57.808Z,95417.91
2024-02-29T18:25:25.030Z,95420.81
2024-02-29T18:27:52.177Z,95426.13
2024-02-29T18:30:19.462Z,95429.31
2024-02-29T18:32:46.565Z,95424.44
2024-02-29T18:35:14.233Z,95423.59
2024-02-29T18:37:41.514Z,95414.22
2024-02-29T18:40:09.704Z,95416.00
2024-02-29T18:42:36.859Z,95418.59
2024-02-29T18:45:04.077Z,95418.28
2024-02-29T18:47:33.144Z,95416.66
2024-02-29T18:50:00.362Z,95420.88
2024-02-29T18:52:27.648Z,95425.38
2024-02-29T18:54:54.860Z,95425.38
2024-02-29T18:57:22.543Z,95422.16
2024-02-29T18:59:49.758Z,95417.00
2024-02-29T19:02:16.909Z,95408.44
2024-02-29T19:04:44.458Z,95405.16
2024-02-29T19:07:11.577Z,95408.13
2024-02-29T19:09:38.743Z,95400.72
2024-02-29T19:12:07.211Z,95405.72
2024-02-29T19:14:34.276Z,95409.13
2024-02-29T19:17:01.629Z,95415.94
2024-02-29T19:19:28.785Z,95411.66
2024-02-29T19:21:56.138Z,95412.63
2024-02-29T19:24:23.231Z,95408.13
2024-02-29T19:26:50.274Z,95408.38
2024-02-29T19:29:17.387Z,95407.31
2024-02-29T19:31:44.479Z,95397.72
2024-02-29T19:34:11.584Z,95396.44
2024-02-29T19:36:38.644Z,95395.56
2024-02-29T19:39:05.737Z,95394.41
2024-02-29T19:41:32.788Z,95392.50
2024-02-29T19:43:59.873Z,95393.31
2024-02-29T19:46:26.958Z,95389.84
2024-02-29T19:48:55.031Z,95374.13
2024-02-29T19:51:22.152Z,95376.47
2024-02-29T19:53:49.556Z,95385.25
2024-02-29T19:56:16.963Z,95383.06
2024-02-29T19:58:44.087Z,95375.59
2024-02-29T20:01:12.020Z,95372.13
2024-02-29T20:03:39.196Z,95371.31
2024-02-29T20:06:06.465Z,95371.53
2024-02-29T20:08:33.598Z,95366.69
2024-02-29T20:11:00.668Z,95379.19
2024-02-29T20:13:28.004Z,95380.22
2024-02-29T20:15:55.188Z,95370.66
2024-02-29T20:18:24.309Z,95375.41
2024-02-29T20:20:51.529Z,95379.91
2024-02-29T20:23:19.505Z,95372.16
2024-02-29T20:25:47.257Z,95364.69
2024-02-29T20:28:14.439Z,95365.41
2024-02-29T20:30:41.562Z,95361.28
2024-02-29T20:33:08.619Z,95367.09
2024-02-29T20:35:35.830Z,95364.44
2024-02-29T20:38:02.934Z,95362.31
2024-02-29T20:40:30.023Z,95364.16
2024-02-29T20:42:57.125Z,95358.31
2024-02-29T20:45:25.373Z,95362.81
2024-02-29T20:47:52.542Z,95356.91
2024-02-29T20:50:19.654Z,95361.66
2024-02-29T20:52:47.730Z,95357.16
2024-02-29T20:55:15.166Z,95353.69
2024-02-29T20:57:42.394Z,95356.91
2024-02-29T21:00:12.857Z,95352.78
2024-02-29T21:02:39.986Z,95355.69
2024-02-29T21:05:07.231Z,95357.78
2024-02-29T21:07:34.636Z,95348.22
2024-02-29T21:10:02.223Z,95328.97
2024-02-29T21:12:29.446Z,95308.19
2024-02-29T21:14:56.576Z,95284.28
2024-02-29T21:17:23.741Z,95264.31
2024-02-29T21:19:50.911Z,95251.03
2024-02-29T21:22:18.139Z,95234.63
2024-02-29T21:24:45.428Z,95218.72
2024-02-29T21:27:12.564Z,95203.59
2024-02-29T21:29:42.082Z,95192.97
2024-02-29T21:32:10.464Z,95176.00
2024-02-29T21:34:37.522Z,95160.88
2024-02-29T21:37:04.712Z,95139.84
2024-02-29T21:39:36.692Z,95120.16
2024-02-29T21:42:11.044Z,95103.72
2024-02-29T21:44:38.192Z,95076.13
2024-02-29T21:47:05.392Z,95044.03
2024-02-29T21:49:32.493Z,95027.84
2024-02-29T21:51:59.652Z,95015.06
2024-02-29T21:54:26.931Z,94990.59
2024-02-29T21:56:54.034Z,94983.44
2024-02-29T21:59:21.141Z,94963.00
2024-02-29T22:01:48.776Z,94937.50
2024-02-29T22:04:16.210Z,94931.13
2024-02-29T22:06:44.113Z,94915.72
2024-02-29T22:09:11.518Z,94914.13
2024-02-29T22:11:38.674Z,94908.53
2024-02-29T22:14:05.992Z,94900.28
2024-02-29T22:16:33.901Z,94897.38
2024-02-29T22:19:01.712Z,94899.22
2024-02-29T22:21:29.149Z,94898.19
2024-02-29T22:23:56.463Z,94896.56
2024-02-29T22:26:23.913Z,94894.66
2024-02-29T22:28:51.091Z,94892.25
2024-02-29T22:31:18.563Z,94890.31
2024-02-29T22:33:46.101Z,94887.63
2024-02-29T22:36:13.480Z,94880.41
2024-02-29T22:38:40.780Z,94874.03
2024-02-29T22:41:08.097Z,94869.81
2024-02-29T22:43:35.572Z,94870.03
2024-02-29T22:46:02.795Z,94863.88
2024-02-29T22:48:30.008Z,94853.69
2024-02-29T22:50:57.132Z,94848.81
2024-02-29T22:53:24.345Z,94855.41
2024-02-29T22:55:52.116Z,94852.69
2024-02-29T22:58:20.426Z,94852.94
2024-02-29T23:00:53.401Z,94842.03
2024-02-29T23:03:24.117Z,94836.16
2024-02-29T23:05:51.277Z,94831.53
2024-02-29T23:08:18.752Z,94836.25
2024-02-29T23:10:46.271Z,94839.09
2024-02-29T23:13:13.577Z,94835.09
2024-02-29T23:15:40.685Z,94840.41
2024-02-29T23:18:07.980Z,94835.34
2024-02-29T23:20:35.234Z,94832.25
2024-02-29T23:23:02.428Z,94827.75
2024-02-29T23:25:30.336Z,94821.69
2024-02-29T23:27:57.752Z,94821.94
2024-02-29T23:30:24.958Z,94812.66
2024-02-29T23:32:52.102Z,94806.22
2024-02-29T23:35:19.385Z,94808.81
2024-02-29T23:37:46.645Z,94817.56
2024-02-29T23:40:16.738Z,94817.13
2024-02-29T23:42:44.447Z,94805.91
2024-02-29T23:45:11.670Z,94813.06
2024-02-29T23:47:38.834Z,94811.50
2024-02-29T23:50:06.850Z,94819.69
2024-02-29T23:52:34.452Z,94822.84
2024-02-29T23:55:01.607Z,94809.84
2024-02-29T23:57:28.758Z,94810.31
2024-02-29T23:59:55.830Z,94826.78
